Time;durP1;ratioP1;P1;durP2;ratioP2;P2;SDS_P1;SDS_P2;PMS_P1;PMS_P2;Temp;Humidity;BMP_temperature;BMP_pressure;BME280_temperature;BME280_humidity;BME280_pressure;Samples;Min_cycle;Max_cycle;Signal;HPM_P1;HPM_P2
2022/07/03 00:00:43;;;;;;;;;13.00;13.00;29.20;48.00;;;;;;5073827;28;11511;-67
2022/07/03 00:03:09;;;;;;;;;11.00;11.00;29.00;48.80;;;;;;5074043;28;11624;-67
2022/07/03 00:05:35;;;;;;;;;11.75;11.75;28.80;49.00;;;;;;5077583;28;8775;-67
2022/07/03 00:08:03;;;;;;;;;13.33;13.33;28.60;49.50;;;;;;5077326;28;8886;-67
2022/07/03 00:10:29;;;;;;;;;11.00;10.00;28.60;49.70;;;;;;5077480;28;11493;-67
2022/07/03 00:12:55;;;;;;;;;14.00;14.00;28.40;50.30;;;;;;5077361;28;12135;-67
2022/07/03 00:15:21;;;;;;;;;10.00;10.00;28.40;50.40;;;;;;5077151;28;8759;-67
2022/07/03 00:17:46;;;;;;;;;11.00;11.00;28.70;50.10;;;;;;5077129;28;8767;-67
2022/07/03 00:20:12;;;;;;;;;13.00;13.00;28.60;49.70;;;;;;5077077;28;8784;-67
2022/07/03 00:22:42;;;;;;;;;12.75;12.75;28.80;49.40;;;;;;5077185;28;8895;-67
2022/07/03 00:25:12;;;;;;;;;13.25;13.25;28.40;50.40;;;;;;5077316;28;8916;-66
2022/07/03 00:27:39;;;;;;;;;14.00;13.67;28.30;50.80;;;;;;5076898;28;11494;-69
2022/07/03 00:30:07;;;;;;;;;15.00;14.00;28.30;51.00;;;;;;5076747;28;11521;-67
2022/07/03 00:32:37;;;;;;;;;12.67;12.67;28.40;50.40;;;;;;5077133;28;11475;-68
2022/07/03 00:35:03;;;;;;;;;14.00;14.00;28.30;50.70;;;;;;5075424;28;11552;-67
2022/07/03 00:37:29;;;;;;;;;12.67;12.67;28.30;50.90;;;;;;5076799;28;11571;-67
2022/07/03 00:39:57;;;;;;;;;12.75;12.00;28.10;51.30;;;;;;5076680;28;11858;-68
2022/07/03 00:42:23;;;;;;;;;14.25;14.25;28.10;51.50;;;;;;5076579;28;11604;-69
2022/07/03 00:44:51;;;;;;;;;13.50;13.50;28.30;50.70;;;;;;5076569;28;11616;-68
2022/07/03 00:47:19;;;;;;;;;12.25;12.25;28.40;50.60;;;;;;5076783;28;11493;-68
2022/07/03 00:49:48;;;;;;;;;14.00;14.00;28.10;51.00;;;;;;5076796;28;11754;-68
2022/07/03 00:52:15;;;;;;;;;8.00;8.00;28.20;51.10;;;;;;5076528;28;11461;-66
2022/07/03 00:54:55;;;;;;;;;12.75;12.75;28.10;51.10;;;;;;5076696;28;11436;-68
2022/07/03 00:57:23;;;;;;;;;15.00;14.50;27.80;52.10;;;;;;5076435;28;12129;-69
2022/07/03 00:59:50;;;;;;;;;13.33;13.33;27.50;53.60;;;;;;5076393;28;11485;-68
2022/07/03 01:02:31;;;;;;;;;13.33;13.33;27.30;54.30;;;;;;5076455;28;11509;-67
2022/07/03 01:05:15;;;;;;;;;14.67;14.67;27.80;53.00;;;;;;5076519;28;11490;-67
2022/07/03 01:08:11;;;;;;;;;12.67;12.67;28.00;52.20;;;;;;5076205;28;11471;-67
2022/07/03 01:11:19;;;;;;;;;14.00;13.67;28.10;51.90;;;;;;5076174;28;12144;-67
2022/07/03 01:14:03;;;;;;;;;13.00;12.00;27.90;52.00;;;;;;5076178;28;11506;-67
2022/07/03 01:16:54;;;;;;;;;15.00;14.33;27.60;53.50;;;;;;5076337;28;11561;-67
2022/07/03 01:19:44;;;;;;;;;14.67;14.67;27.50;53.60;;;;;;5075981;28;11549;-67
2022/07/03 01:22:35;;;;;;;;;11.00;11.00;27.60;53.20;;;;;;5075848;28;11525;-67
2022/07/03 01:25:06;;;;;;;;;13.00;13.00;27.70;53.00;;;;;;5076352;28;11450;-67
2022/07/03 01:27:46;;;;;;;;;14.67;13.00;27.60;53.20;;;;;;5076141;28;11598;-66
2022/07/03 01:30:12;;;;;;;;;11.00;11.00;27.40;53.60;;;;;;5075685;28;11540;-69
2022/07/03 01:32:42;;;;;;;;;14.00;12.00;27.50;54.30;;;;;;5075937;28;11485;-66
2022/07/03 01:35:11;;;;;;;;;12.67;12.67;27.60;53.20;;;;;;5076212;28;8767;-66
2022/07/03 01:37:39;;;;;;;;;13.00;13.00;27.30;54.00;;;;;;5075544;28;11477;-68
2022/07/03 01:40:06;;;;;;;;;12.00;12.00;27.40;53.60;;;;;;5075782;28;11462;-68
2022/07/03 01:42:41;;;;;;;;;14.00;14.00;27.70;53.00;;;;;;5057638;28;11584;-68
2022/07/03 01:45:09;;;;;;;;;14.25;12.75;27.70;52.60;;;;;;5057714;28;11631;-68
2022/07/03 01:47:40;;;;;;;;;14.00;13.00;27.60;52.80;;;;;;5075378;28;11464;-66
2022/07/03 01:50:10;;;;;;;;;10.75;10.75;27.80;52.30;;;;;;5075355;28;11483;-67
2022/07/03 01:52:37;;;;;;;;;11.50;11.00;27.90;51.90;;;;;;5075486;28;11584;-67
2022/07/03 01:55:04;;;;;;;;;13.00;13.00;28.00;51.80;;;;;;5075192;28;11502;-67
2022/07/03 01:57:47;;;;;;;;;13.25;11.00;28.10;51.50;;;;;;5075186;28;11484;-69
2022/07/03 02:00:21;;;;;;;;;11.50;11.50;27.80;51.90;;;;;;5075391;28;11483;-67
2022/07/03 02:03:04;;;;;;;;;12.00;11.33;27.80;51.90;;;;;;5075274;28;11500;-66
2022/07/03 02:05:44;;;;;;;;;15.00;15.00;27.80;52.00;;;;;;5075365;28;11449;-67
2022/07/03 02:08:37;;;;;;;;;9.67;8.33;27.80;51.90;;;;;;5075365;28;11510;-69
2022/07/03 02:11:11;;;;;;;;;14.00;11.67;27.60;52.60;;;;;;5074989;28;11539;-66
2022/07/03 02:13:56;;;;;;;;;14.00;14.00;27.70;52.00;;;;;;5075189;28;11471;-66
2022/07/03 02:16:24;;;;;;;;;10.67;10.67;27.80;51.90;;;;;;5074874;28;11500;-66
2022/07/03 02:19:21;;;;;;;;;12.00;12.00;27.90;51.60;;;;;;5075031;28;11846;-67
2022/07/03 02:21:51;;;;;;;;;13.67;13.67;27.70;51.80;;;;;;4973943;28;11464;-67
2022/07/03 02:24:26;;;;;;;;;11.50;11.50;27.50;53.00;;;;;;4974018;28;11411;-66
2022/07/03 02:27:05;;;;;;;;;14.50;13.75;27.40;53.10;;;;;;4973494;28;11565;-66
2022/07/03 02:29:35;;;;;;;;;10.25;10.25;27.40;52.80;;;;;;4973800;28;11582;-66
2022/07/03 02:32:06;;;;;;;;;12.25;11.25;27.50;52.70;;;;;;4973668;28;11542;-66
2022/07/03 02:34:34;;;;;;;;;13.00;13.00;27.40;52.80;;;;;;4973820;28;11474;-66
2022/07/03 02:37:14;;;;;;;;;10.00;10.00;27.50;52.50;;;;;;4973832;28;11524;-66
2022/07/03 02:39:57;;;;;;;;;13.00;12.67;27.70;51.90;;;;;;4973768;28;11437;-67
2022/07/03 02:42:45;;;;;;;;;11.75;11.75;27.80;51.80;;;;;;4973695;28;11450;-66
2022/07/03 02:45:11;;;;;;;;;12.67;12.67;27.80;51.40;;;;;;4973698;28;11482;-67
2022/07/03 02:47:46;;;;;;;;;14.00;13.00;27.70;51.60;;;;;;4973561;28;12118;-67
2022/07/03 02:50:17;;;;;;;;;13.67;13.00;27.60;52.00;;;;;;4973718;28;8770;-66
2022/07/03 02:53:38;;;;;;;;;16.33;13.33;27.70;51.50;;;;;;4973570;28;11463;-67
2022/07/03 02:56:14;;;;;;;;;14.00;12.67;27.90;51.00;;;;;;4896948;29;11615;-66
2022/07/03 02:59:08;;;;;;;;;13.00;13.00;27.80;51.10;;;;;;4952136;28;11421;-65
2022/07/03 03:01:46;;;;;;;;;12.00;12.00;27.70;51.10;;;;;;4973336;28;11450;-66
2022/07/03 03:04:30;;;;;;;;;9.00;9.00;27.90;50.80;;;;;;4973589;28;11430;-65
2022/07/03 03:07:05;;;;;;;;;13.67;13.67;27.90;50.40;;;;;;4973339;28;11520;-66
2022/07/03 03:09:43;;;;;;;;;14.00;14.00;27.80;50.90;;;;;;4957949;28;12089;-66
2022/07/03 03:12:10;;;;;;;;;13.00;13.00;27.90;50.60;;;;;;4973304;28;11655;-66
2022/07/03 03:14:43;;;;;;;;;14.33;14.33;28.00;50.30;;;;;;4973311;28;11419;-67
2022/07/03 03:17:23;;;;;;;;;14.33;14.33;28.10;50.20;;;;;;4973397;28;11526;-66
2022/07/03 03:19:55;;;;;;;;;15.00;13.00;28.10;50.00;;;;;;4973338;28;12105;-66
2022/07/03 03:22:28;;;;;;;;;14.00;14.00;28.00;50.00;;;;;;4973209;28;11472;-67
2022/07/03 03:24:54;;;;;;;;;13.75;13.75;28.00;50.10;;;;;;4973173;28;11503;-67
2022/07/03 03:27:21;;;;;;;;;12.00;10.67;27.80;50.60;;;;;;4973203;28;11410;-65
2022/07/03 03:29:47;;;;;;;;;15.33;14.00;27.90;50.50;;;;;;4972918;28;11587;-66
2022/07/03 03:32:14;;;;;;;;;17.67;16.00;28.10;49.90;;;;;;5005683;28;11473;-66
2022/07/03 03:34:41;;;;;;;;;14.67;14.67;27.90;49.90;;;;;;5053883;28;11473;-66
2022/07/03 03:37:07;;;;;;;;;15.33;15.00;27.90;50.40;;;;;;5053841;28;11482;-66
2022/07/03 03:39:33;;;;;;;;;17.00;16.00;27.90;50.10;;;;;;5057004;28;11440;-67
2022/07/03 03:42:02;;;;;;;;;22.00;18.00;28.10;49.80;;;;;;5057766;28;11494;-66
2022/07/03 03:44:28;;;;;;;;;13.67;13.67;28.10;49.60;;;;;;5058139;28;9500;-66
2022/07/03 03:46:55;;;;;;;;;16.67;16.00;28.10;49.50;;;;;;5058023;28;11432;-65
2022/07/03 03:49:21;;;;;;;;;14.00;13.00;27.90;50.40;;;;;;5058085;28;8744;-67
2022/07/03 03:51:47;;;;;;;;;17.67;16.33;27.90;50.20;;;;;;5057690;28;11452;-65
2022/07/03 03:54:13;;;;;;;;;16.67;16.67;27.80;50.50;;;;;;5057542;28;11498;-66
2022/07/03 03:56:39;;;;;;;;;14.67;14.67;27.80;50.50;;;;;;5057639;28;8769;-67
2022/07/03 03:59:05;;;;;;;;;11.33;11.33;27.70;50.80;;;;;;5057837;28;8777;-67
2022/07/03 04:01:30;;;;;;;;;14.00;14.00;27.70;50.70;;;;;;5057718;28;8780;-66
2022/07/03 04:03:59;;;;;;;;;11.33;11.33;27.70;50.90;;;;;;5057654;28;8779;-67
2022/07/03 04:06:25;;;;;;;;;13.00;13.00;27.80;50.70;;;;;;5057725;28;8777;-66
2022/07/03 04:08:51;;;;;;;;;14.00;12.00;27.90;50.50;;;;;;5057342;28;11471;-67
2022/07/03 04:11:18;;;;;;;;;15.67;14.67;27.90;50.30;;;;;;5057477;28;11462;-64
2022/07/03 04:13:45;;;;;;;;;11.00;11.00;27.60;51.30;;;;;;5057159;28;11483;-65
2022/07/03 04:16:11;;;;;;;;;16.00;16.00;27.20;52.70;;;;;;5057442;28;11462;-66
2022/07/03 04:18:37;;;;;;;;;16.00;14.00;27.30;52.20;;;;;;5057430;28;11470;-65
2022/07/03 04:21:03;;;;;;;;;15.00;15.00;27.20;52.40;;;;;;5057398;28;11587;-66
2022/07/03 04:23:30;;;;;;;;;13.00;13.00;27.50;52.10;;;;;;5057655;28;11479;-65
2022/07/03 04:25:55;;;;;;;;;16.00;16.00;27.40;51.90;;;;;;5057411;28;11500;-68
2022/07/03 04:28:21;;;;;;;;;15.00;15.00;27.50;51.80;;;;;;5057484;28;12112;-66
2022/07/03 04:30:47;;;;;;;;;16.33;16.33;27.40;52.60;;;;;;5065830;28;8831;-67
2022/07/03 04:33:13;;;;;;;;;14.00;14.00;27.20;52.80;;;;;;5076988;28;8791;-66
2022/07/03 04:35:39;;;;;;;;;13.33;12.33;27.30;52.80;;;;;;5077065;28;11516;-66
2022/07/03 04:38:05;;;;;;;;;16.67;16.67;27.00;53.80;;;;;;5076833;28;8767;-65
2022/07/03 04:40:31;;;;;;;;;13.33;13.33;26.90;54.30;;;;;;5076975;28;8775;-65
2022/07/03 04:42:57;;;;;;;;;15.67;15.67;26.60;56.40;;;;;;5076722;28;8799;-66
2022/07/03 04:45:22;;;;;;;;;15.33;15.33;26.40;56.10;;;;;;5076731;28;8905;-66
2022/07/03 04:47:48;;;;;;;;;15.33;15.33;26.80;55.20;;;;;;5076678;28;8799;-68
2022/07/03 04:50:14;;;;;;;;;14.33;14.33;27.00;54.30;;;;;;5076730;28;8859;-66
2022/07/03 04:52:40;;;;;;;;;14.33;14.00;27.30;53.50;;;;;;5059263;28;8771;-68
2022/07/03 04:55:07;;;;;;;;;14.67;14.67;27.40;52.60;;;;;;5076556;28;8763;-68
2022/07/03 04:57:33;;;;;;;;;13.33;13.33;27.50;52.70;;;;;;5076533;28;8759;-66
2022/07/03 04:59:59;;;;;;;;;17.00;17.00;27.20;53.20;;;;;;5076479;28;11551;-66
2022/07/03 05:02:24;;;;;;;;;14.33;14.33;26.70;55.00;;;;;;5076396;28;8871;-66
2022/07/03 05:04:50;;;;;;;;;17.00;17.00;26.10;57.20;;;;;;5076702;28;8767;-67
2022/07/03 05:07:16;;;;;;;;;17.67;17.67;26.10;57.20;;;;;;5076541;28;8817;-66
2022/07/03 05:09:42;;;;;;;;;16.33;15.00;26.30;56.60;;;;;;5076263;28;8780;-66
2022/07/03 05:12:08;;;;;;;;;16.00;14.33;26.60;55.90;;;;;;5076448;28;8779;-67
2022/07/03 05:14:33;;;;;;;;;14.00;14.00;26.90;55.00;;;;;;5076362;28;8793;-65
2022/07/03 05:16:59;;;;;;;;;15.00;14.00;27.10;54.50;;;;;;5076211;28;8767;-66
2022/07/03 05:19:25;;;;;;;;;15.33;15.33;27.40;53.60;;;;;;5076105;28;8901;-65
2022/07/03 05:21:51;;;;;;;;;13.67;13.67;27.60;53.10;;;;;;5075900;28;8914;-65
2022/07/03 05:24:16;;;;;;;;;13.00;12.33;27.60;52.90;;;;;;5075902;28;8806;-65
2022/07/03 05:26:42;;;;;;;;;15.00;14.00;27.60;52.90;;;;;;5075863;28;8779;-67
2022/07/03 05:29:08;;;;;;;;;13.33;13.33;27.50;53.00;;;;;;5075930;28;8783;-64
2022/07/03 05:31:34;;;;;;;;;13.00;13.00;27.60;52.40;;;;;;5075564;28;8904;-66
2022/07/03 05:33:59;;;;;;;;;15.33;15.33;27.50;52.50;;;;;;5075842;28;8863;-66
2022/07/03 05:36:25;;;;;;;;;16.00;16.00;27.70;52.30;;;;;;5075744;28;8779;-65
2022/07/03 05:41:35;;;;;;;;;13.00;12.33;27.90;51.20;;;;;;5075610;28;8783;-66
2022/07/03 05:44:01;;;;;;;;;20.00;18.00;27.80;51.20;;;;;;5075567;28;8875;-67
2022/07/03 05:46:27;;;;;;;;;14.67;14.67;27.80;51.50;;;;;;5075835;28;8779;-66
2022/07/03 05:48:52;;;;;;;;;17.00;16.00;27.70;51.00;;;;;;5075426;28;8870;-67
2022/07/03 05:51:18;;;;;;;;;22.00;22.00;27.80;50.70;;;;;;5075705;28;9420;-66
2022/07/03 05:53:44;;;;;;;;;14.00;14.00;27.90;50.10;;;;;;5075667;28;8940;-66
2022/07/03 05:56:10;;;;;;;;;19.67;18.67;27.80;50.20;;;;;;5075623;28;8781;-67
2022/07/03 05:58:35;;;;;;;;;20.67;20.67;27.90;50.20;;;;;;5075479;28;8767;-65
2022/07/03 06:01:01;;;;;;;;;22.67;22.67;27.60;50.20;;;;;;5074675;28;8807;-67
2022/07/03 06:03:27;;;;;;;;;21.67;19.67;27.80;50.00;;;;;;5075144;28;8767;-67
2022/07/03 06:05:53;;;;;;;;;20.33;18.67;27.70;50.90;;;;;;5074898;28;8787;-66
2022/07/03 06:08:18;;;;;;;;;19.00;19.00;27.90;50.40;;;;;;5075271;28;8775;-66
2022/07/03 06:10:44;;;;;;;;;21.00;21.00;27.80;51.10;;;;;;5075253;28;8763;-67
2022/07/03 06:13:10;;;;;;;;;18.00;18.00;27.80;51.90;;;;;;5075191;28;8779;-66
2022/07/03 06:15:36;;;;;;;;;19.00;17.33;28.10;50.10;;;;;;5074892;28;9574;-65
2022/07/03 06:18:01;;;;;;;;;21.67;21.67;28.40;48.80;;;;;;5075099;28;8767;-66
2022/07/03 06:20:27;;;;;;;;;21.00;20.00;28.50;48.30;;;;;;5074855;28;8783;-67
2022/07/03 06:22:53;;;;;;;;;19.67;18.67;28.50;47.70;;;;;;5074655;28;8887;-66
2022/07/03 06:25:19;;;;;;;;;21.00;17.33;28.50;48.00;;;;;;5074635;28;8776;-68
2022/07/03 06:27:45;;;;;;;;;17.33;17.33;28.50;47.70;;;;;;5074699;28;8783;-67
2022/07/03 06:30:11;;;;;;;;;18.33;16.67;28.70;47.90;;;;;;5074572;28;9008;-67
2022/07/03 06:32:37;;;;;;;;;20.00;19.00;29.00;47.10;;;;;;5074757;28;8779;-67
2022/07/03 06:35:03;;;;;;;;;18.67;18.67;28.90;46.90;;;;;;5074551;28;11480;-67
2022/07/03 06:37:29;;;;;;;;;20.00;18.33;29.10;46.60;;;;;;5074826;28;8793;-66
2022/07/03 06:39:54;;;;;;;;;19.00;17.33;28.90;47.50;;;;;;5074361;28;11511;-67
2022/07/03 06:42:20;;;;;;;;;17.67;17.67;28.70;48.00;;;;;;5074440;28;8811;-68
2022/07/03 06:44:46;;;;;;;;;19.33;19.33;28.90;47.90;;;;;;5074282;28;8759;-66
2022/07/03 06:47:12;;;;;;;;;19.00;18.00;29.20;46.80;;;;;;5074655;28;8799;-66
2022/07/03 06:49:38;;;;;;;;;18.00;17.00;29.00;47.20;;;;;;5074253;28;8767;-67
2022/07/03 06:52:04;;;;;;;;;18.00;18.00;29.10;46.90;;;;;;5073907;28;8783;-68
2022/07/03 06:54:29;;;;;;;;;16.33;16.33;29.30;46.60;;;;;;5074344;28;8856;-67
2022/07/03 06:56:55;;;;;;;;;16.33;16.33;29.50;46.00;;;;;;5074247;28;11611;-67
2022/07/03 06:59:21;;;;;;;;;18.00;18.00;29.30;46.00;;;;;;5074243;28;8865;-67
2022/07/03 07:01:47;;;;;;;;;16.00;15.33;29.40;45.90;;;;;;5074316;28;8791;-66
2022/07/03 07:04:13;;;;;;;;;19.67;19.33;29.30;46.30;;;;;;5074138;28;8767;-66
2022/07/03 07:06:38;;;;;;;;;20.67;19.33;29.60;45.40;;;;;;5074232;28;8764;-67
2022/07/03 07:09:06;;;;;;;;;20.33;19.00;29.50;45.60;;;;;;5074076;28;8783;-66
2022/07/03 07:11:31;;;;;;;;;19.00;19.00;29.70;45.00;;;;;;5074336;28;8783;-66
2022/07/03 07:13:57;;;;;;;;;17.67;17.33;29.70;45.10;;;;;;5073602;28;12241;-66
2022/07/03 07:16:23;;;;;;;;;17.33;16.33;29.80;45.10;;;;;;5056296;28;8771;-67
2022/07/03 07:18:49;;;;;;;;;17.00;16.00;30.10;44.20;;;;;;5074202;28;8771;-66
2022/07/03 07:21:15;;;;;;;;;15.67;15.67;30.30;43.70;;;;;;5073799;28;8830;-66
2022/07/03 07:23:40;;;;;;;;;19.67;19.00;30.40;43.40;;;;;;5074149;28;8758;-66
2022/07/03 07:26:07;;;;;;;;;18.33;16.67;30.00;44.10;;;;;;5073999;28;8806;-68
2022/07/03 07:28:34;;;;;;;;;20.00;17.00;30.20;43.70;;;;;;5073914;28;8841;-66
2022/07/03 07:31:01;;;;;;;;;17.00;17.00;30.40;42.80;;;;;;5073589;28;11559;-67
2022/07/03 07:33:26;;;;;;;;;15.75;15.25;30.30;42.80;;;;;;5073891;28;11559;-66
2022/07/03 07:35:52;;;;;;;;;16.33;16.33;30.60;42.60;;;;;;5073817;28;11511;-66
2022/07/03 07:38:18;;;;;;;;;17.67;15.67;30.60;42.30;;;;;;5073803;28;8779;-69
2022/07/03 07:40:44;;;;;;;;;19.00;18.00;30.80;42.10;;;;;;5074091;28;8782;-66
2022/07/03 07:43:10;;;;;;;;;17.25;17.00;30.80;42.10;;;;;;5073756;28;8815;-66
2022/07/03 07:45:36;;;;;;;;;14.00;14.00;30.80;41.50;;;;;;5073826;28;8763;-68
2022/07/03 07:48:02;;;;;;;;;15.75;15.00;30.90;41.60;;;;;;5073859;28;8786;-67
2022/07/03 07:50:28;;;;;;;;;16.00;16.00;31.10;41.40;;;;;;5073989;28;11486;-67
2022/07/03 07:52:54;;;;;;;;;16.00;16.00;31.20;40.80;;;;;;5073793;28;8782;-66
2022/07/03 07:55:20;;;;;;;;;14.00;14.00;31.30;40.60;;;;;;5073663;28;11582;-68
2022/07/03 07:57:48;;;;;;;;;16.50;16.50;31.30;40.40;;;;;;5073651;28;8771;-66
2022/07/03 08:00:16;;;;;;;;;14.75;14.75;31.40;40.30;;;;;;5073921;28;11521;-68
2022/07/03 08:05:36;;;;;;;;;16.67;16.67;31.40;40.30;;;;;;5073634;28;12075;-67
2022/07/03 08:08:02;;;;;;;;;15.67;14.00;31.20;40.50;;;;;;5073560;28;11528;-66
2022/07/03 08:10:28;;;;;;;;;12.67;12.67;31.20;40.20;;;;;;5073612;28;11459;-66
2022/07/03 08:12:53;;;;;;;;;17.00;17.00;31.40;40.30;;;;;;5073897;28;8775;-67
2022/07/03 08:15:19;;;;;;;;;14.33;14.33;31.30;40.20;;;;;;5073823;28;8786;-68
2022/07/03 08:17:45;;;;;;;;;16.00;16.00;31.30;40.60;;;;;;5073458;28;8779;-68
2022/07/03 08:20:11;;;;;;;;;14.25;14.25;31.50;39.50;;;;;;5073479;28;8771;-67
2022/07/03 08:22:37;;;;;;;;;17.50;17.50;31.70;39.30;;;;;;5073605;28;8803;-67
2022/07/03 08:25:03;;;;;;;;;15.00;15.00;31.80;39.30;;;;;;5075306;28;8771;-68
2022/07/03 08:27:28;;;;;;;;;20.00;19.00;32.00;39.50;;;;;;5077159;28;9452;-67
2022/07/03 08:29:54;;;;;;;;;18.25;18.25;31.90;39.60;;;;;;5076765;28;11531;-67
2022/07/03 08:32:20;;;;;;;;;16.00;16.00;31.90;40.00;;;;;;5077015;28;8779;-67
2022/07/03 08:34:46;;;;;;;;;16.25;15.00;31.90;39.80;;;;;;5076759;28;8893;-66
2022/07/03 08:37:11;;;;;;;;;15.67;15.67;32.00;39.60;;;;;;5077140;28;8855;-66
2022/07/03 08:39:37;;;;;;;;;16.75;16.75;31.80;39.80;;;;;;5077028;28;8775;-66
2022/07/03 08:42:05;;;;;;;;;17.67;16.00;31.60;40.50;;;;;;5076580;28;8803;-66
2022/07/03 08:44:32;;;;;;;;;14.67;14.67;31.70;40.60;;;;;;5076704;28;8888;-66
2022/07/03 08:47:02;;;;;;;;;20.00;20.00;31.80;40.60;;;;;;5076586;28;11490;-66
2022/07/03 08:49:29;;;;;;;;;16.33;15.33;31.90;40.20;;;;;;5076504;28;11493;-67
2022/07/03 08:51:55;;;;;;;;;13.00;13.00;31.90;40.30;;;;;;5076490;28;11567;-67
2022/07/03 08:54:21;;;;;;;;;16.25;16.25;31.90;40.70;;;;;;5076387;28;11872;-67
2022/07/03 08:56:48;;;;;;;;;17.00;17.00;32.00;40.00;;;;;;5076408;28;11496;-67
2022/07/03 08:59:14;;;;;;;;;13.50;13.00;32.30;39.10;;;;;;5076629;28;8901;-67
2022/07/03 09:01:43;;;;;;;;;14.25;13.25;32.20;39.60;;;;;;5076490;28;11541;-66
2022/07/03 09:04:13;;;;;;;;;16.75;16.00;32.30;39.70;;;;;;5076264;28;11500;-65
2022/07/03 09:06:40;;;;;;;;;15.75;15.75;32.60;39.30;;;;;;5076206;28;11477;-68
2022/07/03 09:09:08;;;;;;;;;16.50;16.50;32.50;39.80;;;;;;5076042;28;11484;-67
2022/07/03 09:11:38;;;;;;;;;17.00;16.75;32.00;41.00;;;;;;5076280;28;11544;-67
2022/07/03 09:14:06;;;;;;;;;17.00;16.25;32.10;40.70;;;;;;5076469;28;11489;-66
2022/07/03 09:16:35;;;;;;;;;17.25;15.75;32.10;40.80;;;;;;5075886;28;11573;-66
2022/07/03 09:19:03;;;;;;;;;17.00;15.50;31.80;40.30;;;;;;5076137;28;11458;-68
2022/07/03 09:21:49;;;;;;;;;14.50;14.50;32.00;39.20;;;;;;5075982;28;11622;-68
2022/07/03 09:24:17;;;;;;;;;14.00;12.75;32.50;38.60;;;;;;5075501;28;11520;-67
2022/07/03 09:26:52;;;;;;;;;13.25;12.75;32.70;38.40;;;;;;5075726;28;12219;-67
2022/07/03 09:29:18;;;;;;;;;16.00;16.00;32.80;39.20;;;;;;5075563;28;11510;-67
2022/07/03 09:31:54;;;;;;;;;13.25;13.25;32.80;41.20;;;;;;5075457;28;11533;-67
2022/07/03 09:34:21;;;;;;;;;11.25;11.25;32.60;38.90;;;;;;5075798;28;8805;-68
2022/07/03 09:36:50;;;;;;;;;13.25;13.25;32.70;38.20;;;;;;5074399;28;11579;-67
2022/07/03 09:39:26;;;;;;;;;14.00;14.00;32.60;39.00;;;;;;5075484;28;11556;-68
2022/07/03 09:41:56;;;;;;;;;11.75;10.00;32.70;38.80;;;;;;5075294;28;11522;-69
2022/07/03 09:44:34;;;;;;;;;14.00;14.00;33.00;38.00;;;;;;5075264;28;11462;-67
2022/07/03 09:47:08;;;;;;;;;12.00;11.25;33.20;36.10;;;;;;5075361;28;11493;-67
2022/07/03 09:49:52;;;;;;;;;14.50;14.50;33.50;36.60;;;;;;5075301;28;11468;-66
2022/07/03 09:52:38;;;;;;;;;14.50;14.50;33.90;38.00;;;;;;5075242;28;11468;-67
2022/07/03 09:55:10;;;;;;;;;13.25;13.25;34.10;37.30;;;;;;5074986;28;11497;-67
2022/07/03 09:57:56;;;;;;;;;11.50;11.00;34.30;36.60;;;;;;5075588;28;11577;-66
2022/07/03 10:00:24;;;;;;;;;12.50;12.50;34.30;36.40;;;;;;5058267;28;11513;-67
2022/07/03 10:02:53;;;;;;;;;17.25;16.50;34.40;36.50;;;;;;5074847;28;11513;-67
2022/07/03 10:05:21;;;;;;;;;16.50;15.50;34.50;36.50;;;;;;5074994;28;11617;-67
2022/07/03 10:08:02;;;;;;;;;14.50;14.50;34.30;36.60;;;;;;5074897;28;11573;-68
2022/07/03 10:10:30;;;;;;;;;14.75;14.75;34.00;36.50;;;;;;5074834;28;11476;-67
2022/07/03 10:12:57;;;;;;;;;23.00;23.00;34.40;36.20;;;;;;5074841;28;11494;-67
2022/07/03 10:15:25;;;;;;;;;11.75;11.75;34.70;34.50;;;;;;5074872;28;11502;-67
2022/07/03 10:17:53;;;;;;;;;12.25;12.25;34.50;34.50;;;;;;5075098;28;11596;-67
2022/07/03 10:20:41;;;;;;;;;16.00;14.75;34.90;34.60;;;;;;5074727;28;11487;-68
2022/07/03 10:23:07;;;;;;;;;14.50;14.50;34.70;34.40;;;;;;5074958;28;11513;-68
2022/07/03 10:25:33;;;;;;;;;13.00;13.00;34.60;34.80;;;;;;5074974;28;11634;-66
2022/07/03 10:28:01;;;;;;;;;11.75;11.75;34.60;34.20;;;;;;5074860;28;11508;-67
2022/07/03 10:30:27;;;;;;;;;14.25;13.75;34.90;34.10;;;;;;5074689;28;11610;-67
2022/07/03 10:32:55;;;;;;;;;15.25;15.25;35.00;35.30;;;;;;5074748;28;11479;-67
2022/07/03 10:35:27;;;;;;;;;14.50;14.50;34.80;35.50;;;;;;5074427;28;11491;-67
2022/07/03 10:38:02;;;;;;;;;14.50;14.50;34.80;34.60;;;;;;5074556;28;11479;-67
2022/07/03 10:46:17;;;;;;;;;10.00;10.00;34.80;34.70;;;;;;5074486;28;11475;-67
2022/07/03 10:49:00;;;;;;;;;12.00;12.00;34.90;34.40;;;;;;5074236;28;11556;-69
2022/07/03 10:51:28;;;;;;;;;12.00;12.00;35.20;33.80;;;;;;5074358;28;11502;-69
2022/07/03 10:54:14;;;;;;;;;12.50;12.50;35.50;33.20;;;;;;5074243;28;11505;-67
2022/07/03 10:57:16;;;;;;;;;11.00;11.00;35.80;33.30;;;;;;5074281;28;11659;-67
2022/07/03 10:59:44;;;;;;;;;11.75;11.75;36.20;32.00;;;;;;4973384;28;11465;-66
2022/07/03 11:02:32;;;;;;;;;11.00;11.00;36.00;32.40;;;;;;4973260;28;11615;-67
2022/07/03 11:05:00;;;;;;;;;6.25;5.25;36.30;33.40;;;;;;4973464;28;11440;-68
2022/07/03 11:07:27;;;;;;;;;12.00;12.00;36.60;31.50;;;;;;4973312;28;12135;-68
2022/07/03 11:10:14;;;;;;;;;10.75;10.75;36.90;33.20;;;;;;4973201;28;11424;-67
2022/07/03 11:13:00;;;;;;;;;8.75;8.75;36.90;31.50;;;;;;4973276;28;11472;-68
2022/07/03 11:15:34;;;;;;;;;11.50;11.50;37.00;31.30;;;;;;4973032;28;12276;-66
2022/07/03 11:18:07;;;;;;;;;13.00;13.00;36.50;31.30;;;;;;4973103;28;11421;-65
2022/07/03 11:20:37;;;;;;;;;9.00;9.00;36.20;31.90;;;;;;4973082;28;11472;-70
2022/07/03 11:23:34;;;;;;;;;11.00;11.00;36.50;32.10;;;;;;4973086;28;11519;-66
2022/07/03 11:26:07;;;;;;;;;15.50;15.50;37.10;31.80;;;;;;4973032;28;11440;-67
2022/07/03 11:28:33;;;;;;;;;11.50;11.50;37.10;31.20;;;;;;4973158;28;11565;-67
2022/07/03 11:31:13;;;;;;;;;13.50;13.50;37.40;30.10;;;;;;4972802;28;11504;-66
2022/07/03 11:33:42;;;;;;;;;13.25;13.25;37.70;30.00;;;;;;5023193;28;8897;-69
2022/07/03 11:36:14;;;;;;;;;17.75;17.75;37.30;30.20;;;;;;5074044;28;11502;-68
2022/07/03 11:38:41;;;;;;;;;13.75;13.75;37.00;31.10;;;;;;5074170;28;11518;-82
2022/07/03 11:41:09;;;;;;;;;14.25;13.75;35.70;32.70;;;;;;5073673;28;11503;-83
2022/07/03 11:43:35;;;;;;;;;15.00;15.00;35.60;33.30;;;;;;5074161;28;12202;-82
2022/07/03 11:46:03;;;;;;;;;13.00;13.00;36.00;33.00;;;;;;5074132;28;11483;-81
2022/07/03 11:48:29;;;;;;;;;15.75;15.50;36.80;32.40;;;;;;5056244;28;8919;-83
2022/07/03 11:51:01;;;;;;;;;15.00;15.00;37.90;31.10;;;;;;5073994;28;11571;-81
2022/07/03 11:53:30;;;;;;;;;13.25;13.25;38.60;30.00;;;;;;5073728;28;11505;-82
2022/07/03 11:56:26;;;;;;;;;11.00;11.00;39.70;29.30;;;;;;5074006;28;11490;-83
2022/07/03 11:58:54;;;;;;;;;10.75;10.75;41.30;27.90;;;;;;4972900;28;11524;-81
2022/07/03 12:01:25;;;;;;;;;13.25;13.25;42.50;26.70;;;;;;4976738;28;12200;-79
2022/07/03 12:04:09;;;;;;;;;12.50;12.50;43.40;25.60;;;;;;4976714;28;11450;-79
2022/07/03 12:06:46;;;;;;;;;14.75;14.75;44.10;24.70;;;;;;4976932;28;11474;-78
2022/07/03 12:09:22;;;;;;;;;12.50;12.50;44.70;23.80;;;;;;4976782;28;11443;-80
2022/07/03 12:12:04;;;;;;;;;9.00;9.00;45.40;23.10;;;;;;4976519;28;11541;-81
2022/07/03 12:14:38;;;;;;;;;15.50;15.50;45.80;22.90;;;;;;4976667;28;11402;-81
2022/07/03 12:17:06;;;;;;;;;14.25;14.25;46.40;22.80;;;;;;4976687;28;11440;-84
2022/07/03 12:19:31;;;;;;;;;13.50;13.50;46.80;22.00;;;;;;4976750;28;12133;-80
2022/07/03 12:21:57;;;;;;;;;13.75;13.75;47.00;21.20;;;;;;4976599;28;11589;-79
2022/07/03 12:24:23;;;;;;;;;14.67;14.67;47.30;21.90;;;;;;4976285;28;8787;-84
2022/07/03 12:26:49;;;;;;;;;11.67;11.67;47.20;21.50;;;;;;4976221;28;8786;-80
2022/07/03 12:29:16;;;;;;;;;11.67;11.67;47.40;21.50;;;;;;4976379;28;8806;-80
2022/07/03 12:31:45;;;;;;;;;13.75;13.75;47.40;21.30;;;;;;4976132;28;8834;-81
2022/07/03 12:34:13;;;;;;;;;14.75;14.75;47.50;21.30;;;;;;4981002;28;11434;-81
2022/07/03 12:36:39;;;;;;;;;13.33;13.33;47.10;21.70;;;;;;5076982;28;11499;-80
2022/07/03 12:39:05;;;;;;;;;16.00;16.00;47.60;21.80;;;;;;5076810;28;11584;-80
2022/07/03 12:41:32;;;;;;;;;15.00;15.00;48.20;21.00;;;;;;5076797;28;11529;-81
2022/07/03 12:43:59;;;;;;;;;14.00;14.00;48.60;20.80;;;;;;5076892;28;11479;-84
2022/07/03 12:46:32;;;;;;;;;15.00;15.00;48.40;21.00;;;;;;5077013;28;11673;-83
2022/07/03 12:48:59;;;;;;;;;15.67;15.67;48.80;20.90;;;;;;5077026;28;11575;-80
2022/07/03 12:51:40;;;;;;;;;11.33;11.33;49.20;20.40;;;;;;5076487;28;11588;-81
2022/07/03 12:54:06;;;;;;;;;15.33;15.33;48.80;20.70;;;;;;5076784;28;11577;-80
2022/07/03 12:56:32;;;;;;;;;15.00;15.00;49.50;20.30;;;;;;5076506;28;11500;-80